• vieta
  • image
  • image
  • image
mod_vvisit_countermod_vvisit_countermod_vvisit_countermod_vvisit_countermod_vvisit_countermod_vvisit_counter
mod_vvisit_counterŠiandien933
mod_vvisit_counterVakar590
mod_vvisit_counterŠią savaitę4052
mod_vvisit_counterPraėjusią savaitę4962
mod_vvisit_counterŠį mėnesį14023
mod_vvisit_counterPraėjusį mėnesį23068
mod_vvisit_counterViso822251

Mes turime: 79 svečius online
Jūsų IP: 54.91.16.95
 , 
Šiandien: Saus 20, 2018
Oro uostas / Įmonė / Paslaugų sąrašas

Paslaugų sąrašas

Tarptautinis Šiaulių oro uostas klientams teikia šias paslaugas:

Orlaivių palyda.

Antžeminis orlaivių aptarnavimas.

Orlaivių pakrovimas / iškrovimas.

Orlaivių parkavimas.

Orlaivių apsauga.

Orlaivių aprūpinimas kuru.

Keleivių bagažo aptarnavimas.

Verslo klasės keleivių aptarnavimas.

Informacijos keleiviams pateikimas.

Maitinimo tiekimas keleiviams ir įgulai.

Papildomos paslaugos orlaivių įgulos nariams.

Aviacijos saugumas.

Maitinimas kavinėje.

Pirmoji medicininė pagalba.

Viešbučių rezervavimas.

Įgulos išvežimas / parvežimas iš miesto.

Taksi iškvietimo paslaugos.

Pasienio procedūros.

Muitinės procedūros.

 

Šiandien

Šeštadienis, 20 Sausis 2018

Orų prognozė aviacijai

[source: ADDS]
METAR
EYSA 202020Z VRB02KT 8000 OVC004 M03/M04 Q1008 R32R/29//95 R32L/29//95 YLO2 NOSIG =
TAF
TAF EYSA 202003Z 2021/2106 VRB03KT 5000 BR OVC004 =
SR / SS: 06:36 / 14:41 UTC (EYSA 2018-01-20)

Paieška

Lankytojai

Mes turime 80 svečius online

tic logo lt